createdAt,value
2023-10-29T00:01:26.329Z,79.79
2023-10-29T00:03:53.452Z,79.70
2023-10-29T00:06:20.455Z,80.05
2023-10-29T00:08:47.426Z,79.75
2023-10-29T00:11:14.310Z,79.19
2023-10-29T00:13:41.203Z,80.22
2023-10-29T00:16:08.109Z,79.80
2023-10-29T00:18:35.071Z,79.37
2023-10-29T00:21:02.004Z,79.60
2023-10-29T00:23:28.921Z,79.30
2023-10-29T00:25:55.864Z,79.43
2023-10-29T00:28:22.914Z,79.97
2023-10-29T00:30:49.737Z,80.08
2023-10-29T00:33:16.970Z,80.13
2023-10-29T00:35:44.045Z,80.34
2023-10-29T00:38:11.000Z,79.67
2023-10-29T00:40:41.089Z,80.10
2023-10-29T00:43:07.997Z,79.77
2023-10-29T00:45:36.077Z,79.57
2023-10-29T00:48:03.144Z,79.31
2023-10-29T00:50:30.250Z,79.12
2023-10-29T00:52:58.353Z,79.17
2023-10-29T00:55:26.409Z,79.24
2023-10-29T00:57:54.816Z,78.75
2023-10-29T01:00:23.886Z,78.97
2023-10-29T01:02:50.900Z,79.48
2023-10-29T01:05:17.931Z,79.74
2023-10-29T01:07:45.197Z,78.87
2023-10-29T01:10:13.012Z,78.46
2023-10-29T01:12:40.280Z,78.01
2023-10-29T01:15:07.571Z,78.71
2023-10-29T01:17:34.547Z,78.20
2023-10-29T01:20:01.591Z,78.12
2023-10-29T01:22:28.593Z,78.31
2023-10-29T01:24:55.590Z,78.51
2023-10-29T01:27:22.560Z,78.60
2023-10-29T01:29:49.711Z,78.96
2023-10-29T01:32:17.271Z,79.15
2023-10-29T01:34:46.460Z,79.44
2023-10-29T01:37:13.551Z,79.64
2023-10-29T01:39:40.462Z,79.62
2023-10-29T01:42:07.462Z,80.21
2023-10-29T01:44:34.864Z,80.38
2023-10-29T01:47:01.895Z,80.50
2023-10-29T01:49:28.843Z,79.68
2023-10-29T01:51:55.792Z,79.75
2023-10-29T01:54:23.175Z,79.44
2023-10-29T01:56:50.146Z,78.76
2023-10-29T01:59:17.385Z,78.59
2023-10-29T02:01:44.453Z,77.76
2023-10-29T02:04:12.305Z,77.87
2023-10-29T02:06:39.290Z,77.76
2023-10-29T02:09:07.091Z,77.88
2023-10-29T02:11:34.282Z,77.71
2023-10-29T02:14:01.231Z,77.94
2023-10-29T02:16:28.474Z,76.93
2023-10-29T02:18:55.420Z,77.37
2023-10-29T02:21:22.658Z,77.47
2023-10-29T02:23:49.751Z,77.10
2023-10-29T02:26:16.881Z,77.35
2023-10-29T02:28:43.691Z,76.92
2023-10-29T02:31:21.045Z,76.74
2023-10-29T02:33:48.501Z,77.12
2023-10-29T02:36:16.321Z,76.59
2023-10-29T02:38:43.468Z,76.37
2023-10-29T02:41:10.877Z,76.34
2023-10-29T02:43:41.039Z,76.01
2023-10-29T02:46:08.048Z,75.77
2023-10-29T02:48:35.262Z,75.93
2023-10-29T02:51:02.609Z,75.88
2023-10-29T02:53:29.708Z,75.49
2023-10-29T02:56:00.204Z,76.11
2023-10-29T02:58:27.172Z,75.93
2023-10-29T03:00:54.600Z,75.20
2023-10-29T03:03:21.592Z,75.39
2023-10-29T03:05:57.125Z,75.22
2023-10-29T03:08:25.234Z,75.39
2023-10-29T03:10:52.279Z,75.64
2023-10-29T03:13:19.257Z,75.47
2023-10-29T03:15:46.484Z,75.95
2023-10-29T03:18:13.625Z,76.36
2023-10-29T03:20:41.598Z,76.69
2023-10-29T03:23:09.575Z,77.80
2023-10-29T03:25:36.553Z,76.74
2023-10-29T03:28:03.672Z,76.83
2023-10-29T03:30:30.759Z,76.49
2023-10-29T03:32:57.943Z,76.77
2023-10-29T03:35:28.314Z,77.27
2023-10-29T03:37:55.661Z,76.64
2023-10-29T03:40:22.948Z,77.60
2023-10-29T03:42:49.966Z,77.84
2023-10-29T03:45:16.886Z,77.55
2023-10-29T03:47:44.108Z,77.74
2023-10-29T03:50:11.258Z,78.17
2023-10-29T03:52:38.670Z,78.36
2023-10-29T03:55:05.938Z,77.86
2023-10-29T03:57:34.039Z,77.93
2023-10-29T04:00:01.119Z,78.12
2023-10-29T04:02:28.207Z,79.08
2023-10-29T04:05:08.261Z,78.46
2023-10-29T04:07:36.670Z,79.06
2023-10-29T04:10:03.714Z,79.17
2023-10-29T04:12:30.762Z,78.79
2023-10-29T04:14:57.951Z,77.71
2023-10-29T04:17:25.020Z,77.71
2023-10-29T04:19:52.069Z,77.92
2023-10-29T04:22:19.053Z,77.33
2023-10-29T04:24:46.373Z,76.90
2023-10-29T04:27:13.596Z,77.31
2023-10-29T04:29:40.634Z,77.26
2023-10-29T04:32:07.989Z,77.38
2023-10-29T04:34:34.860Z,77.38
2023-10-29T04:37:01.883Z,78.02
2023-10-29T04:39:28.780Z,77.37
2023-10-29T04:41:55.965Z,77.15
2023-10-29T04:44:22.980Z,77.35
2023-10-29T04:46:50.054Z,77.26
2023-10-29T04:49:16.874Z,77.87
2023-10-29T04:51:43.954Z,77.36
2023-10-29T04:54:10.886Z,77.40
2023-10-29T04:56:38.019Z,77.27
2023-10-29T04:59:04.975Z,77.84
2023-10-29T05:01:31.982Z,77.61
2023-10-29T05:03:58.944Z,77.11
2023-10-29T05:06:25.994Z,77.59
2023-10-29T05:08:52.968Z,77.73
2023-10-29T05:11:20.408Z,77.46
2023-10-29T05:13:47.324Z,77.51
2023-10-29T05:16:15.230Z,77.87
2023-10-29T05:18:42.091Z,77.91
2023-10-29T05:21:09.153Z,77.24
2023-10-29T05:23:36.257Z,77.20
2023-10-29T05:26:03.500Z,76.54
2023-10-29T05:28:30.609Z,76.50
2023-10-29T05:30:57.630Z,76.72
2023-10-29T05:33:24.650Z,76.26
2023-10-29T05:35:51.839Z,77.02
2023-10-29T05:38:18.683Z,77.01
2023-10-29T05:40:45.551Z,76.60
2023-10-29T05:43:12.451Z,75.91
2023-10-29T05:45:39.501Z,76.15
2023-10-29T05:48:06.687Z,76.14
2023-10-29T05:50:33.696Z,76.29
2023-10-29T05:53:01.047Z,76.24
2023-10-29T05:55:28.017Z,76.09
2023-10-29T05:57:54.894Z,76.03
2023-10-29T06:00:22.589Z,76.12
2023-10-29T06:02:49.621Z,76.33
2023-10-29T06:05:16.820Z,75.78
2023-10-29T06:07:43.731Z,76.18
2023-10-29T06:10:14.153Z,75.99
2023-10-29T06:12:42.320Z,76.04
2023-10-29T06:15:11.117Z,75.89
2023-10-29T06:17:38.850Z,75.95
2023-10-29T06:20:06.975Z,76.00
2023-10-29T06:22:33.966Z,75.28
2023-10-29T06:25:01.031Z,75.73
2023-10-29T06:27:28.004Z,75.06
2023-10-29T06:29:55.136Z,75.23
2023-10-29T06:32:22.449Z,75.36
2023-10-29T06:34:49.633Z,74.41
2023-10-29T06:37:16.855Z,74.70
2023-10-29T06:39:43.824Z,74.47
2023-10-29T06:42:10.794Z,75.16
2023-10-29T06:44:38.206Z,75.18
2023-10-29T06:47:05.328Z,74.86
2023-10-29T06:49:32.257Z,75.13
2023-10-29T06:51:59.233Z,75.02
2023-10-29T06:54:26.247Z,74.81
2023-10-29T06:56:53.256Z,73.89
2023-10-29T06:59:20.238Z,74.46
2023-10-29T07:01:47.227Z,74.23
2023-10-29T07:04:17.623Z,74.54
2023-10-29T07:06:44.644Z,73.81
2023-10-29T07:09:11.649Z,74.18
2023-10-29T07:11:38.797Z,74.10
2023-10-29T07:14:05.727Z,73.57
2023-10-29T07:16:32.741Z,73.80
2023-10-29T07:18:59.850Z,73.92
2023-10-29T07:21:29.163Z,74.15
2023-10-29T07:23:57.671Z,73.80
2023-10-29T07:26:24.870Z,73.55
2023-10-29T07:28:51.892Z,74.24
2023-10-29T07:31:21.630Z,72.89
2023-10-29T07:33:49.007Z,73.99
2023-10-29T07:36:16.162Z,73.57
2023-10-29T07:38:43.239Z,72.59
2023-10-29T07:41:10.185Z,72.79
2023-10-29T07:43:37.190Z,72.47
2023-10-29T07:46:04.814Z,72.77
2023-10-29T07:48:32.066Z,72.66
2023-10-29T07:50:59.202Z,72.39
2023-10-29T07:53:26.349Z,71.70
2023-10-29T07:55:53.461Z,72.01
2023-10-29T07:58:20.539Z,71.77
2023-10-29T08:00:47.547Z,71.67
2023-10-29T08:03:15.227Z,71.56
2023-10-29T08:05:52.313Z,71.84
2023-10-29T08:08:20.241Z,71.46
2023-10-29T08:10:47.392Z,71.93
2023-10-29T08:13:14.452Z,72.26
2023-10-29T08:15:43.582Z,72.01
2023-10-29T08:18:11.033Z,70.93
2023-10-29T08:20:38.484Z,71.18
2023-10-29T08:23:05.482Z,71.95
2023-10-29T08:25:32.413Z,71.06
2023-10-29T08:27:59.797Z,71.46
2023-10-29T08:30:26.813Z,71.69
2023-10-29T08:32:53.835Z,71.86
2023-10-29T08:35:20.844Z,72.27
2023-10-29T08:37:48.098Z,72.46
2023-10-29T08:40:15.209Z,72.53
2023-10-29T08:42:42.206Z,72.92
2023-10-29T08:45:09.728Z,73.44
2023-10-29T08:47:36.898Z,74.40
2023-10-29T08:50:03.985Z,74.01
2023-10-29T08:52:31.135Z,73.91
2023-10-29T08:54:58.025Z,73.69
2023-10-29T08:57:25.244Z,73.45
2023-10-29T08:59:52.248Z,72.45
2023-10-29T09:02:19.204Z,73.00
2023-10-29T09:04:46.304Z,73.25
2023-10-29T09:07:13.455Z,72.90
2023-10-29T09:09:40.445Z,73.53
2023-10-29T09:12:07.770Z,74.39
2023-10-29T09:14:34.730Z,74.31
2023-10-29T09:17:03.349Z,73.84
2023-10-29T09:19:30.604Z,73.62
2023-10-29T09:21:57.592Z,74.06
2023-10-29T09:24:24.489Z,73.65
2023-10-29T09:26:51.528Z,73.17
2023-10-29T09:29:18.480Z,73.92
2023-10-29T09:31:45.947Z,74.23
2023-10-29T09:34:14.083Z,74.22
2023-10-29T09:36:41.196Z,73.74
2023-10-29T09:39:08.141Z,73.68
2023-10-29T09:41:38.099Z,73.48
2023-10-29T09:44:07.997Z,73.82
2023-10-29T09:46:37.631Z,73.49
2023-10-29T09:49:04.762Z,73.58
2023-10-29T09:51:33.719Z,72.54
2023-10-29T09:54:01.437Z,72.36
2023-10-29T09:56:28.446Z,72.21
2023-10-29T09:58:55.378Z,71.96
2023-10-29T10:01:22.393Z,71.29
2023-10-29T10:03:53.966Z,71.26
2023-10-29T10:06:21.935Z,70.89
2023-10-29T10:08:57.066Z,70.54
2023-10-29T10:11:24.200Z,70.12
2023-10-29T10:13:51.845Z,70.68
2023-10-29T10:16:19.161Z,69.76
2023-10-29T10:18:55.513Z,70.23
2023-10-29T10:21:24.583Z,70.18
2023-10-29T10:23:56.689Z,70.60
2023-10-29T10:26:33.035Z,70.95
2023-10-29T10:29:01.731Z,71.40
2023-10-29T10:31:30.436Z,71.40
2023-10-29T10:34:20.328Z,71.19
2023-10-29T10:36:50.521Z,70.58
2023-10-29T10:39:23.775Z,70.87
2023-10-29T10:41:50.875Z,71.16
2023-10-29T10:44:21.212Z,71.70
2023-10-29T10:46:55.290Z,72.23
2023-10-29T10:49:22.961Z,73.00
2023-10-29T10:51:54.681Z,72.48
2023-10-29T10:54:23.073Z,72.40
2023-10-29T10:56:52.144Z,73.46
2023-10-29T10:59:20.734Z,73.11
2023-10-29T11:01:48.938Z,73.35
2023-10-29T11:04:16.621Z,73.75
2023-10-29T11:06:44.725Z,72.89
2023-10-29T11:09:14.083Z,73.12
2023-10-29T11:11:54.296Z,73.36
2023-10-29T11:14:23.823Z,73.12
2023-10-29T11:16:59.195Z,73.50
2023-10-29T11:19:45.183Z,72.64
2023-10-29T11:22:23.724Z,72.80
2023-10-29T11:25:09.025Z,72.83
2023-10-29T11:27:39.893Z,72.77
2023-10-29T11:30:14.187Z,72.88
2023-10-29T11:32:43.462Z,72.23
2023-10-29T11:35:16.858Z,72.07
2023-10-29T11:37:45.005Z,72.17
2023-10-29T11:40:26.310Z,72.08
2023-10-29T11:42:54.515Z,72.45
2023-10-29T11:45:27.694Z,71.88
2023-10-29T11:48:09.966Z,72.14
2023-10-29T11:50:42.105Z,72.49
2023-10-29T11:53:24.464Z,71.44
2023-10-29T11:55:53.437Z,71.46
2023-10-29T11:58:23.204Z,71.88
2023-10-29T12:00:50.699Z,71.91
2023-10-29T12:03:22.095Z,71.36
2023-10-29T12:05:56.252Z,72.25
2023-10-29T12:08:27.079Z,71.22
2023-10-29T12:10:56.089Z,71.50
2023-10-29T12:13:23.160Z,71.61
2023-10-29T12:16:00.368Z,72.12
2023-10-29T12:18:28.094Z,71.36
2023-10-29T12:21:09.035Z,71.09
2023-10-29T12:23:37.381Z,71.74
2023-10-29T12:26:06.217Z,71.43
2023-10-29T12:28:36.964Z,71.88
2023-10-29T12:31:05.445Z,71.57
2023-10-29T12:33:33.503Z,71.43
2023-10-29T12:36:02.027Z,71.45
2023-10-29T12:38:29.404Z,71.38
2023-10-29T12:41:13.793Z,71.48
2023-10-29T12:43:42.657Z,71.17
2023-10-29T12:46:10.735Z,70.80
2023-10-29T12:49:03.243Z,70.27
2023-10-29T12:51:33.384Z,70.80
2023-10-29T12:54:14.173Z,71.09
2023-10-29T12:56:58.559Z,71.15
2023-10-29T12:59:27.907Z,71.35
2023-10-29T13:01:57.712Z,71.41
2023-10-29T13:04:28.921Z,70.82
2023-10-29T13:06:58.805Z,71.41
2023-10-29T13:09:27.333Z,71.44
2023-10-29T13:11:54.398Z,71.26
2023-10-29T13:14:23.031Z,70.55
2023-10-29T13:16:51.268Z,70.62
2023-10-29T13:19:18.367Z,71.08
2023-10-29T13:21:45.420Z,71.22
2023-10-29T13:24:13.649Z,71.30
2023-10-29T13:26:41.477Z,71.33
2023-10-29T13:29:08.392Z,71.17
2023-10-29T13:31:35.328Z,71.96
2023-10-29T13:34:02.461Z,71.20
2023-10-29T13:36:31.538Z,70.71
2023-10-29T13:38:59.035Z,71.45
2023-10-29T13:41:26.260Z,71.60
2023-10-29T13:43:53.325Z,71.21
2023-10-29T13:46:21.681Z,70.68
2023-10-29T13:48:49.033Z,71.18
2023-10-29T13:51:16.825Z,71.52
2023-10-29T13:53:43.923Z,71.32
2023-10-29T13:56:14.634Z,71.37
2023-10-29T13:58:44.006Z,71.60
2023-10-29T14:01:22.173Z,71.47
2023-10-29T14:03:52.051Z,70.80
2023-10-29T14:06:19.692Z,70.85
2023-10-29T14:08:46.882Z,70.76
2023-10-29T14:11:14.099Z,70.69
2023-10-29T14:13:41.767Z,70.80
2023-10-29T14:16:12.768Z,70.98
2023-10-29T14:18:40.429Z,70.89
2023-10-29T14:21:08.006Z,71.29
2023-10-29T14:23:35.401Z,71.12
2023-10-29T14:26:02.738Z,72.33
2023-10-29T14:28:29.822Z,71.59
2023-10-29T14:30:57.558Z,71.73
2023-10-29T14:33:24.873Z,72.11
2023-10-29T14:35:59.048Z,72.02
2023-10-29T14:38:26.196Z,71.77
2023-10-29T14:40:53.103Z,72.32
2023-10-29T14:43:23.136Z,72.80
2023-10-29T14:45:52.384Z,72.81
2023-10-29T14:48:21.229Z,72.73
2023-10-29T14:50:49.342Z,72.84
2023-10-29T14:53:16.843Z,72.61
2023-10-29T14:55:50.405Z,72.31
2023-10-29T14:58:17.605Z,73.17
2023-10-29T15:00:45.831Z,73.01
2023-10-29T15:03:13.745Z,73.46
2023-10-29T15:05:41.206Z,73.12
2023-10-29T15:08:08.395Z,72.97
2023-10-29T15:10:35.355Z,72.82
2023-10-29T15:13:02.432Z,73.23
2023-10-29T15:15:30.723Z,72.75
2023-10-29T15:17:58.838Z,72.97
2023-10-29T15:20:28.232Z,72.83
2023-10-29T15:22:55.683Z,73.18
2023-10-29T15:25:22.898Z,73.05
2023-10-29T15:27:50.442Z,72.13
2023-10-29T15:30:17.503Z,72.80
2023-10-29T15:32:45.264Z,72.83
2023-10-29T15:35:12.826Z,72.61
2023-10-29T15:37:46.200Z,72.47
2023-10-29T15:40:13.522Z,72.28
2023-10-29T15:42:41.337Z,71.94
2023-10-29T15:45:09.210Z,72.42
2023-10-29T15:47:36.111Z,72.76
2023-10-29T15:50:03.944Z,72.11
2023-10-29T15:52:32.087Z,72.95
2023-10-29T15:54:59.276Z,73.38
2023-10-29T15:57:26.440Z,72.80
2023-10-29T15:59:58.018Z,72.68
2023-10-29T16:02:25.467Z,71.96
2023-10-29T16:04:52.468Z,72.97
2023-10-29T16:07:19.488Z,73.05
2023-10-29T16:09:47.113Z,73.43
2023-10-29T16:12:14.291Z,72.91
2023-10-29T16:14:41.277Z,72.78
2023-10-29T16:17:08.352Z,72.61
2023-10-29T16:19:35.344Z,72.69
2023-10-29T16:22:02.450Z,72.79
2023-10-29T16:24:29.547Z,73.12
2023-10-29T16:26:57.584Z,73.10
2023-10-29T16:29:24.692Z,72.71
2023-10-29T16:31:51.900Z,72.64
2023-10-29T16:34:21.578Z,73.30
2023-10-29T16:36:58.076Z,72.90
2023-10-29T16:39:26.910Z,73.41
2023-10-29T16:42:00.322Z,73.93
2023-10-29T16:44:29.778Z,73.37
2023-10-29T16:46:56.787Z,73.29
2023-10-29T16:49:24.720Z,73.75
2023-10-29T16:51:52.483Z,72.85
2023-10-29T16:54:20.559Z,73.03
2023-10-29T16:56:47.565Z,72.83
2023-10-29T16:59:14.668Z,72.64
2023-10-29T17:01:41.693Z,73.28
2023-10-29T17:04:09.511Z,73.36
2023-10-29T17:06:37.069Z,72.35
2023-10-29T17:09:05.040Z,72.89
2023-10-29T17:11:34.178Z,72.44
2023-10-29T17:14:01.887Z,72.65
2023-10-29T17:16:28.763Z,72.64
2023-10-29T17:18:56.212Z,72.47
2023-10-29T17:21:23.458Z,72.53
2023-10-29T17:23:50.521Z,72.31
2023-10-29T17:26:20.909Z,72.02
2023-10-29T17:28:49.116Z,72.18
2023-10-29T17:31:19.546Z,71.86
2023-10-29T17:33:50.446Z,72.08
2023-10-29T17:36:19.761Z,71.98
2023-10-29T17:38:48.224Z,71.46
2023-10-29T17:41:20.017Z,71.61
2023-10-29T17:43:47.489Z,72.09
2023-10-29T17:46:21.824Z,71.36
2023-10-29T17:48:51.112Z,72.01
2023-10-29T17:51:18.241Z,71.81
2023-10-29T17:53:45.398Z,71.37
2023-10-29T17:56:12.545Z,70.99
2023-10-29T17:58:39.721Z,70.73
2023-10-29T18:01:06.952Z,70.85
2023-10-29T18:03:34.099Z,70.69
2023-10-29T18:06:13.454Z,70.55
2023-10-29T18:08:43.549Z,70.51
2023-10-29T18:11:11.948Z,70.71
2023-10-29T18:13:38.972Z,70.43
2023-10-29T18:16:08.005Z,70.41
2023-10-29T18:18:36.692Z,70.20
2023-10-29T18:21:04.777Z,69.82
2023-10-29T18:23:31.963Z,70.07
2023-10-29T18:25:59.015Z,70.30
2023-10-29T18:28:28.851Z,70.51
2023-10-29T18:30:55.936Z,70.50
2023-10-29T18:33:23.035Z,70.70
2023-10-29T18:35:50.135Z,70.31
2023-10-29T18:38:17.188Z,70.75
2023-10-29T18:40:45.010Z,70.69
2023-10-29T18:43:12.170Z,70.80
2023-10-29T18:45:41.996Z,70.54
2023-10-29T18:48:09.216Z,70.50
2023-10-29T18:50:36.221Z,70.25
2023-10-29T18:53:04.020Z,70.40
2023-10-29T18:55:31.223Z,69.94
2023-10-29T18:57:58.703Z,70.28
2023-10-29T19:00:25.802Z,70.26
2023-10-29T19:02:53.423Z,70.50
2023-10-29T19:05:20.526Z,70.73
2023-10-29T19:07:47.589Z,70.33
2023-10-29T19:10:14.500Z,70.18
2023-10-29T19:12:41.840Z,69.80
2023-10-29T19:15:09.450Z,70.34
2023-10-29T19:17:37.702Z,70.38
2023-10-29T19:20:05.436Z,69.58
2023-10-29T19:22:32.933Z,69.98
2023-10-29T19:25:00.045Z,69.38
2023-10-29T19:27:27.976Z,68.87
2023-10-29T19:29:55.649Z,69.02
2023-10-29T19:32:22.649Z,69.35
2023-10-29T19:34:49.569Z,69.16
2023-10-29T19:37:16.464Z,69.01
2023-10-29T19:39:43.438Z,68.37
2023-10-29T19:42:10.371Z,69.46
2023-10-29T19:44:38.070Z,69.89
2023-10-29T19:47:05.094Z,69.42
2023-10-29T19:49:31.932Z,70.54
2023-10-29T19:51:58.975Z,70.37
2023-10-29T19:54:26.001Z,70.29
2023-10-29T19:56:53.022Z,69.49
2023-10-29T19:59:20.022Z,69.32
2023-10-29T20:01:47.024Z,69.15
2023-10-29T20:04:14.205Z,69.43
2023-10-29T20:06:41.267Z,68.68
2023-10-29T20:09:08.261Z,68.47
2023-10-29T20:11:35.303Z,68.67
2023-10-29T20:14:02.224Z,68.40
2023-10-29T20:16:29.140Z,68.28
2023-10-29T20:18:56.148Z,68.59
2023-10-29T20:21:23.270Z,68.73
2023-10-29T20:23:50.143Z,69.11
2023-10-29T20:26:19.240Z,69.33
2023-10-29T20:28:48.243Z,70.22
2023-10-29T20:31:15.328Z,70.93
2023-10-29T20:33:42.387Z,70.78
2023-10-29T20:36:09.599Z,70.43
2023-10-29T20:38:36.580Z,71.27
2023-10-29T20:41:03.818Z,71.09
2023-10-29T20:43:30.915Z,70.83
2023-10-29T20:45:57.922Z,70.54
2023-10-29T20:48:24.948Z,70.42
2023-10-29T20:50:52.742Z,71.05
2023-10-29T20:53:19.820Z,71.05
2023-10-29T20:55:47.707Z,70.57
2023-10-29T20:58:15.274Z,70.12
2023-10-29T21:00:42.405Z,70.03
2023-10-29T21:03:09.426Z,69.76
2023-10-29T21:05:36.448Z,69.58
2023-10-29T21:08:03.348Z,70.00
2023-10-29T21:10:30.242Z,69.15
2023-10-29T21:12:57.362Z,69.04
2023-10-29T21:15:24.264Z,68.87
2023-10-29T21:17:51.178Z,69.08
2023-10-29T21:20:18.229Z,68.68
2023-10-29T21:22:45.173Z,69.10
2023-10-29T21:25:12.107Z,68.79
2023-10-29T21:27:39.256Z,69.20
2023-10-29T21:30:06.952Z,69.27
2023-10-29T21:32:34.004Z,69.39
2023-10-29T21:35:00.985Z,69.39
2023-10-29T21:37:27.902Z,69.26
2023-10-29T21:39:54.781Z,69.22
2023-10-29T21:42:21.758Z,69.08
2023-10-29T21:44:48.667Z,70.61
2023-10-29T21:47:15.580Z,69.52
2023-10-29T21:49:47.168Z,69.99
2023-10-29T21:52:14.329Z,69.87
2023-10-29T21:54:41.139Z,69.79
2023-10-29T21:57:08.407Z,70.33
2023-10-29T21:59:35.382Z,70.25
2023-10-29T22:02:02.465Z,70.21
2023-10-29T22:04:29.454Z,69.46
2023-10-29T22:06:56.528Z,69.25
2023-10-29T22:09:24.976Z,69.29
2023-10-29T22:11:52.021Z,69.76
2023-10-29T22:14:18.923Z,69.45
2023-10-29T22:16:45.946Z,69.81
2023-10-29T22:19:12.839Z,70.04
2023-10-29T22:21:39.903Z,69.74
2023-10-29T22:24:07.374Z,69.38
2023-10-29T22:26:34.419Z,69.03
2023-10-29T22:29:01.375Z,68.98
2023-10-29T22:31:28.570Z,69.33
2023-10-29T22:33:55.519Z,68.92
2023-10-29T22:36:22.525Z,68.17
2023-10-29T22:38:49.502Z,68.34
2023-10-29T22:41:16.557Z,67.83
2023-10-29T22:43:44.732Z,67.96
2023-10-29T22:46:18.991Z,67.81
2023-10-29T22:48:46.597Z,67.91
2023-10-29T22:51:13.616Z,68.30
2023-10-29T22:53:40.836Z,67.56
2023-10-29T22:56:08.097Z,67.11
2023-10-29T22:58:35.153Z,66.80
2023-10-29T23:01:02.233Z,66.34
2023-10-29T23:03:29.636Z,66.27
2023-10-29T23:06:02.163Z,66.53
2023-10-29T23:08:29.363Z,66.06
2023-10-29T23:10:56.406Z,65.81
2023-10-29T23:13:24.044Z,65.86
2023-10-29T23:15:52.224Z,65.83
2023-10-29T23:18:19.609Z,65.70
2023-10-29T23:20:46.510Z,66.19
2023-10-29T23:23:13.521Z,66.23
2023-10-29T23:26:06.227Z,65.94
2023-10-29T23:28:38.133Z,65.12
2023-10-29T23:31:06.993Z,65.02
2023-10-29T23:33:34.080Z,64.40
2023-10-29T23:36:01.163Z,64.38
2023-10-29T23:38:28.125Z,64.54
2023-10-29T23:40:55.194Z,64.33
2023-10-29T23:43:22.081Z,63.89
2023-10-29T23:45:49.154Z,63.55
2023-10-29T23:48:16.148Z,63.40
2023-10-29T23:50:43.085Z,63.30
2023-10-29T23:53:10.006Z,63.34
2023-10-29T23:55:37.045Z,62.63
2023-10-29T23:58:03.908Z,62.15
